sensor_id;sensor_type;location;lat;lon;timestamp;P1;durP1;ratioP1;P2;durP2;ratioP2
3257;SDS011;1641;51.306;12.384;2023-04-25T00:00:33;6.13;;;5.13;;
3257;SDS011;1641;51.306;12.384;2023-04-25T00:02:58;6.57;;;5.35;;
3257;SDS011;1641;51.306;12.384;2023-04-25T00:05:25;8.23;;;4.78;;
3257;SDS011;1641;51.306;12.384;2023-04-25T00:07:54;7.32;;;5.07;;
3257;SDS011;1641;51.306;12.384;2023-04-25T00:10:20;6.35;;;4.47;;
3257;SDS011;1641;51.306;12.384;2023-04-25T00:12:45;4.93;;;4.40;;
3257;SDS011;1641;51.306;12.384;2023-04-25T00:15:13;6.45;;;4.57;;
3257;SDS011;1641;51.306;12.384;2023-04-25T00:17:39;6.63;;;4.45;;
3257;SDS011;1641;51.306;12.384;2023-04-25T00:20:04;10.10;;;6.47;;
3257;SDS011;1641;51.306;12.384;2023-04-25T00:22:31;6.47;;;4.90;;
3257;SDS011;1641;51.306;12.384;2023-04-25T00:24:58;8.48;;;4.68;;
3257;SDS011;1641;51.306;12.384;2023-04-25T00:27:25;10.65;;;5.95;;
3257;SDS011;1641;51.306;12.384;2023-04-25T00:29:51;10.10;;;5.80;;
3257;SDS011;1641;51.306;12.384;2023-04-25T00:32:16;7.43;;;5.53;;
3257;SDS011;1641;51.306;12.384;2023-04-25T00:34:44;8.40;;;5.63;;
3257;SDS011;1641;51.306;12.384;2023-04-25T00:37:10;8.00;;;5.88;;
3257;SDS011;1641;51.306;12.384;2023-04-25T00:39:35;7.68;;;4.97;;
3257;SDS011;1641;51.306;12.384;2023-04-25T00:42:00;8.07;;;5.82;;
3257;SDS011;1641;51.306;12.384;2023-04-25T00:44:26;8.32;;;6.43;;
3257;SDS011;1641;51.306;12.384;2023-04-25T00:46:53;8.60;;;6.15;;
3257;SDS011;1641;51.306;12.384;2023-04-25T00:49:20;10.95;;;5.50;;
3257;SDS011;1641;51.306;12.384;2023-04-25T00:51:45;11.10;;;6.22;;
3257;SDS011;1641;51.306;12.384;2023-04-25T00:54:13;10.63;;;6.88;;
3257;SDS011;1641;51.306;12.384;2023-04-25T00:56:39;9.68;;;6.80;;
3257;SDS011;1641;51.306;12.384;2023-04-25T00:59:05;11.82;;;6.70;;
3257;SDS011;1641;51.306;12.384;2023-04-25T01:01:30;8.32;;;6.28;;
3257;SDS011;1641;51.306;12.384;2023-04-25T01:03:56;10.48;;;6.88;;
3257;SDS011;1641;51.306;12.384;2023-04-25T01:06:26;12.27;;;6.95;;
3257;SDS011;1641;51.306;12.384;2023-04-25T01:08:55;13.65;;;7.28;;
3257;SDS011;1641;51.306;12.384;2023-04-25T01:11:24;10.80;;;7.93;;
3257;SDS011;1641;51.306;12.384;2023-04-25T01:13:49;9.07;;;7.13;;
3257;SDS011;1641;51.306;12.384;2023-04-25T01:16:15;10.98;;;6.97;;
3257;SDS011;1641;51.306;12.384;2023-04-25T01:18:43;12.10;;;7.28;;
3257;SDS011;1641;51.306;12.384;2023-04-25T01:21:10;11.13;;;7.40;;
3257;SDS011;1641;51.306;12.384;2023-04-25T01:23:37;10.40;;;6.95;;
3257;SDS011;1641;51.306;12.384;2023-04-25T01:26:03;10.55;;;6.57;;
3257;SDS011;1641;51.306;12.384;2023-04-25T01:28:30;11.98;;;6.53;;
3257;SDS011;1641;51.306;12.384;2023-04-25T01:30:56;10.02;;;6.22;;
3257;SDS011;1641;51.306;12.384;2023-04-25T01:33:22;9.32;;;5.95;;
3257;SDS011;1641;51.306;12.384;2023-04-25T01:35:47;10.40;;;6.07;;
3257;SDS011;1641;51.306;12.384;2023-04-25T01:38:13;9.77;;;5.88;;
3257;SDS011;1641;51.306;12.384;2023-04-25T01:40:39;8.45;;;5.70;;
3257;SDS011;1641;51.306;12.384;2023-04-25T01:43:05;9.70;;;6.90;;
3257;SDS011;1641;51.306;12.384;2023-04-25T01:45:36;8.07;;;6.80;;
3257;SDS011;1641;51.306;12.384;2023-04-25T01:48:04;7.75;;;5.65;;
3257;SDS011;1641;51.306;12.384;2023-04-25T01:50:30;9.20;;;6.55;;
3257;SDS011;1641;51.306;12.384;2023-04-25T01:52:55;9.43;;;6.25;;
3257;SDS011;1641;51.306;12.384;2023-04-25T01:55:21;9.35;;;6.10;;
3257;SDS011;1641;51.306;12.384;2023-04-25T01:57:46;9.95;;;6.47;;
3257;SDS011;1641;51.306;12.384;2023-04-25T02:00:12;10.57;;;7.00;;
3257;SDS011;1641;51.306;12.384;2023-04-25T02:02:40;9.30;;;7.22;;
3257;SDS011;1641;51.306;12.384;2023-04-25T02:05:06;8.30;;;6.53;;
3257;SDS011;1641;51.306;12.384;2023-04-25T02:07:32;13.27;;;7.07;;
3257;SDS011;1641;51.306;12.384;2023-04-25T02:09:57;10.43;;;7.80;;
3257;SDS011;1641;51.306;12.384;2023-04-25T02:12:25;10.82;;;6.88;;
3257;SDS011;1641;51.306;12.384;2023-04-25T02:14:52;10.30;;;6.88;;
3257;SDS011;1641;51.306;12.384;2023-04-25T02:17:17;8.48;;;6.65;;
3257;SDS011;1641;51.306;12.384;2023-04-25T02:19:42;11.27;;;6.65;;
3257;SDS011;1641;51.306;12.384;2023-04-25T02:22:08;7.72;;;6.43;;
3257;SDS011;1641;51.306;12.384;2023-04-25T02:24:33;11.10;;;7.45;;
3257;SDS011;1641;51.306;12.384;2023-04-25T02:27:00;11.02;;;7.28;;
3257;SDS011;1641;51.306;12.384;2023-04-25T02:29:25;12.75;;;7.72;;
3257;SDS011;1641;51.306;12.384;2023-04-25T02:31:50;14.77;;;7.55;;
3257;SDS011;1641;51.306;12.384;2023-04-25T02:34:16;10.73;;;7.63;;
3257;SDS011;1641;51.306;12.384;2023-04-25T02:36:41;9.77;;;7.53;;
3257;SDS011;1641;51.306;12.384;2023-04-25T02:39:09;9.65;;;7.25;;
3257;SDS011;1641;51.306;12.384;2023-04-25T02:41:35;10.05;;;7.30;;
3257;SDS011;1641;51.306;12.384;2023-04-25T02:44:03;12.85;;;7.25;;
3257;SDS011;1641;51.306;12.384;2023-04-25T02:46:31;11.43;;;7.93;;
3257;SDS011;1641;51.306;12.384;2023-04-25T02:48:57;9.07;;;6.55;;
3257;SDS011;1641;51.306;12.384;2023-04-25T02:51:22;7.88;;;6.75;;
3257;SDS011;1641;51.306;12.384;2023-04-25T02:53:47;10.50;;;6.95;;
3257;SDS011;1641;51.306;12.384;2023-04-25T02:56:12;11.25;;;7.68;;
3257;SDS011;1641;51.306;12.384;2023-04-25T02:58:38;9.75;;;7.72;;
3257;SDS011;1641;51.306;12.384;2023-04-25T03:01:04;12.82;;;6.53;;
3257;SDS011;1641;51.306;12.384;2023-04-25T03:03:29;14.13;;;7.55;;
3257;SDS011;1641;51.306;12.384;2023-04-25T03:05:54;11.73;;;6.90;;
3257;SDS011;1641;51.306;12.384;2023-04-25T03:08:19;9.80;;;6.45;;
3257;SDS011;1641;51.306;12.384;2023-04-25T03:10:45;12.20;;;7.68;;
3257;SDS011;1641;51.306;12.384;2023-04-25T03:13:10;10.07;;;6.60;;
3257;SDS011;1641;51.306;12.384;2023-04-25T03:15:36;11.57;;;7.22;;
3257;SDS011;1641;51.306;12.384;2023-04-25T03:18:02;10.05;;;6.85;;
3257;SDS011;1641;51.306;12.384;2023-04-25T03:20:28;17.13;;;7.45;;
3257;SDS011;1641;51.306;12.384;2023-04-25T03:22:53;10.40;;;7.50;;
3257;SDS011;1641;51.306;12.384;2023-04-25T03:25:18;14.20;;;6.90;;
3257;SDS011;1641;51.306;12.384;2023-04-25T03:27:44;15.43;;;6.53;;
3257;SDS011;1641;51.306;12.384;2023-04-25T03:30:09;11.32;;;7.65;;
3257;SDS011;1641;51.306;12.384;2023-04-25T03:32:34;12.10;;;7.53;;
3257;SDS011;1641;51.306;12.384;2023-04-25T03:35:00;11.02;;;6.65;;
3257;SDS011;1641;51.306;12.384;2023-04-25T03:37:25;17.92;;;7.75;;
3257;SDS011;1641;51.306;12.384;2023-04-25T03:39:53;10.82;;;6.90;;
3257;SDS011;1641;51.306;12.384;2023-04-25T03:42:18;9.48;;;6.82;;
3257;SDS011;1641;51.306;12.384;2023-04-25T03:44:44;11.73;;;7.35;;
3257;SDS011;1641;51.306;12.384;2023-04-25T03:47:09;14.40;;;7.75;;
3257;SDS011;1641;51.306;12.384;2023-04-25T03:49:35;13.68;;;8.35;;
3257;SDS011;1641;51.306;12.384;2023-04-25T03:52:01;11.05;;;7.97;;
3257;SDS011;1641;51.306;12.384;2023-04-25T03:54:26;13.50;;;9.45;;
3257;SDS011;1641;51.306;12.384;2023-04-25T03:56:52;33.95;;;16.38;;
3257;SDS011;1641;51.306;12.384;2023-04-25T03:59:17;16.15;;;10.13;;
3257;SDS011;1641;51.306;12.384;2023-04-25T04:01:42;12.50;;;8.05;;
3257;SDS011;1641;51.306;12.384;2023-04-25T04:04:10;15.68;;;8.68;;
3257;SDS011;1641;51.306;12.384;2023-04-25T04:06:38;16.80;;;9.43;;
3257;SDS011;1641;51.306;12.384;2023-04-25T04:09:03;29.92;;;15.35;;
3257;SDS011;1641;51.306;12.384;2023-04-25T04:11:29;14.57;;;8.45;;
3257;SDS011;1641;51.306;12.384;2023-04-25T04:13:54;14.30;;;7.55;;
3257;SDS011;1641;51.306;12.384;2023-04-25T04:16:19;25.65;;;14.35;;
3257;SDS011;1641;51.306;12.384;2023-04-25T04:18:45;33.55;;;15.10;;
3257;SDS011;1641;51.306;12.384;2023-04-25T04:21:10;23.05;;;12.68;;
3257;SDS011;1641;51.306;12.384;2023-04-25T04:23:36;15.43;;;8.73;;
3257;SDS011;1641;51.306;12.384;2023-04-25T04:26:02;13.55;;;8.50;;
3257;SDS011;1641;51.306;12.384;2023-04-25T04:28:27;12.13;;;7.93;;
3257;SDS011;1641;51.306;12.384;2023-04-25T04:30:52;12.55;;;8.07;;
3257;SDS011;1641;51.306;12.384;2023-04-25T04:33:18;11.30;;;8.25;;
3257;SDS011;1641;51.306;12.384;2023-04-25T04:35:46;16.65;;;8.98;;
3257;SDS011;1641;51.306;12.384;2023-04-25T04:38:12;16.35;;;8.90;;
3257;SDS011;1641;51.306;12.384;2023-04-25T04:40:39;17.15;;;9.93;;
3257;SDS011;1641;51.306;12.384;2023-04-25T04:43:06;14.00;;;9.10;;
3257;SDS011;1641;51.306;12.384;2023-04-25T04:45:33;11.10;;;7.90;;
3257;SDS011;1641;51.306;12.384;2023-04-25T04:47:59;22.33;;;11.52;;
3257;SDS011;1641;51.306;12.384;2023-04-25T04:50:24;14.25;;;9.88;;
3257;SDS011;1641;51.306;12.384;2023-04-25T04:52:49;17.95;;;9.85;;
3257;SDS011;1641;51.306;12.384;2023-04-25T04:55:14;15.27;;;8.50;;
3257;SDS011;1641;51.306;12.384;2023-04-25T04:57:40;12.65;;;8.38;;
3257;SDS011;1641;51.306;12.384;2023-04-25T05:00:05;23.90;;;13.52;;
3257;SDS011;1641;51.306;12.384;2023-04-25T05:02:35;15.10;;;9.30;;
3257;SDS011;1641;51.306;12.384;2023-04-25T05:05:00;19.42;;;8.88;;
3257;SDS011;1641;51.306;12.384;2023-04-25T05:07:26;16.88;;;10.25;;
3257;SDS011;1641;51.306;12.384;2023-04-25T05:09:51;10.82;;;8.23;;
3257;SDS011;1641;51.306;12.384;2023-04-25T05:12:16;10.77;;;7.72;;
3257;SDS011;1641;51.306;12.384;2023-04-25T05:14:41;9.90;;;8.07;;
3257;SDS011;1641;51.306;12.384;2023-04-25T05:17:06;16.92;;;8.50;;
3257;SDS011;1641;51.306;12.384;2023-04-25T05:19:33;11.05;;;7.05;;
3257;SDS011;1641;51.306;12.384;2023-04-25T05:21:59;10.88;;;7.57;;
3257;SDS011;1641;51.306;12.384;2023-04-25T05:24:24;14.18;;;9.25;;
3257;SDS011;1641;51.306;12.384;2023-04-25T05:26:49;14.05;;;9.00;;
3257;SDS011;1641;51.306;12.384;2023-04-25T05:29:14;13.80;;;8.98;;
3257;SDS011;1641;51.306;12.384;2023-04-25T05:31:40;16.83;;;10.07;;
3257;SDS011;1641;51.306;12.384;2023-04-25T05:34:05;13.40;;;8.32;;
3257;SDS011;1641;51.306;12.384;2023-04-25T05:36:30;13.18;;;8.07;;
3257;SDS011;1641;51.306;12.384;2023-04-25T05:38:57;18.90;;;9.35;;
3257;SDS011;1641;51.306;12.384;2023-04-25T05:41:22;21.77;;;9.82;;
3257;SDS011;1641;51.306;12.384;2023-04-25T05:43:48;12.90;;;8.68;;
3257;SDS011;1641;51.306;12.384;2023-04-25T05:46:14;13.68;;;9.60;;
3257;SDS011;1641;51.306;12.384;2023-04-25T05:48:41;14.30;;;7.97;;
3257;SDS011;1641;51.306;12.384;2023-04-25T05:51:07;14.93;;;8.90;;
3257;SDS011;1641;51.306;12.384;2023-04-25T05:53:32;13.80;;;8.52;;
3257;SDS011;1641;51.306;12.384;2023-04-25T05:55:57;16.92;;;9.15;;
3257;SDS011;1641;51.306;12.384;2023-04-25T05:58:22;13.00;;;8.35;;
3257;SDS011;1641;51.306;12.384;2023-04-25T06:00:48;15.45;;;8.10;;
3257;SDS011;1641;51.306;12.384;2023-04-25T06:03:13;17.85;;;7.60;;
3257;SDS011;1641;51.306;12.384;2023-04-25T06:05:42;14.85;;;8.45;;
3257;SDS011;1641;51.306;12.384;2023-04-25T06:08:08;11.60;;;7.85;;
3257;SDS011;1641;51.306;12.384;2023-04-25T06:10:33;13.35;;;6.78;;
3257;SDS011;1641;51.306;12.384;2023-04-25T06:12:58;10.80;;;6.47;;
3257;SDS011;1641;51.306;12.384;2023-04-25T06:15:24;12.77;;;7.63;;
3257;SDS011;1641;51.306;12.384;2023-04-25T06:17:49;8.65;;;6.22;;
3257;SDS011;1641;51.306;12.384;2023-04-25T06:20:14;12.88;;;6.18;;
3257;SDS011;1641;51.306;12.384;2023-04-25T06:22:40;10.60;;;5.90;;
3257;SDS011;1641;51.306;12.384;2023-04-25T06:25:05;10.05;;;6.03;;
3257;SDS011;1641;51.306;12.384;2023-04-25T06:27:32;7.53;;;4.60;;
3257;SDS011;1641;51.306;12.384;2023-04-25T06:29:57;11.00;;;5.65;;
3257;SDS011;1641;51.306;12.384;2023-04-25T06:32:23;10.30;;;6.13;;
3257;SDS011;1641;51.306;12.384;2023-04-25T06:34:48;11.60;;;5.43;;
3257;SDS011;1641;51.306;12.384;2023-04-25T06:37:13;11.20;;;6.60;;
3257;SDS011;1641;51.306;12.384;2023-04-25T06:39:38;11.52;;;5.85;;
3257;SDS011;1641;51.306;12.384;2023-04-25T06:42:03;10.05;;;6.30;;
3257;SDS011;1641;51.306;12.384;2023-04-25T06:44:29;15.88;;;5.95;;
3257;SDS011;1641;51.306;12.384;2023-04-25T06:46:54;10.55;;;5.43;;
3257;SDS011;1641;51.306;12.384;2023-04-25T06:49:20;11.85;;;7.28;;
3257;SDS011;1641;51.306;12.384;2023-04-25T06:51:45;10.68;;;6.70;;
3257;SDS011;1641;51.306;12.384;2023-04-25T06:54:10;14.02;;;6.85;;
3257;SDS011;1641;51.306;12.384;2023-04-25T06:56:36;9.88;;;6.18;;
3257;SDS011;1641;51.306;12.384;2023-04-25T06:59:01;8.88;;;5.32;;
3257;SDS011;1641;51.306;12.384;2023-04-25T07:01:26;15.93;;;5.75;;
3257;SDS011;1641;51.306;12.384;2023-04-25T07:03:51;10.48;;;6.88;;
3257;SDS011;1641;51.306;12.384;2023-04-25T07:06:17;15.50;;;6.72;;
3257;SDS011;1641;51.306;12.384;2023-04-25T07:08:42;13.80;;;7.53;;
3257;SDS011;1641;51.306;12.384;2023-04-25T07:11:08;14.40;;;6.65;;
3257;SDS011;1641;51.306;12.384;2023-04-25T07:13:33;11.30;;;6.45;;
3257;SDS011;1641;51.306;12.384;2023-04-25T07:15:58;11.65;;;5.97;;
3257;SDS011;1641;51.306;12.384;2023-04-25T07:18:24;9.45;;;6.65;;
3257;SDS011;1641;51.306;12.384;2023-04-25T07:20:50;11.65;;;6.90;;
3257;SDS011;1641;51.306;12.384;2023-04-25T07:23:15;13.98;;;7.35;;
3257;SDS011;1641;51.306;12.384;2023-04-25T07:25:40;12.52;;;6.65;;
3257;SDS011;1641;51.306;12.384;2023-04-25T07:28:05;10.05;;;6.40;;
3257;SDS011;1641;51.306;12.384;2023-04-25T07:30:31;13.77;;;6.93;;
3257;SDS011;1641;51.306;12.384;2023-04-25T07:32:56;10.00;;;6.90;;
3257;SDS011;1641;51.306;12.384;2023-04-25T07:35:21;14.23;;;6.90;;
3257;SDS011;1641;51.306;12.384;2023-04-25T07:37:47;12.57;;;6.80;;
3257;SDS011;1641;51.306;12.384;2023-04-25T07:40:13;11.52;;;6.60;;
3257;SDS011;1641;51.306;12.384;2023-04-25T07:42:40;14.05;;;7.82;;
3257;SDS011;1641;51.306;12.384;2023-04-25T07:45:06;13.63;;;7.50;;
3257;SDS011;1641;51.306;12.384;2023-04-25T07:47:31;11.90;;;7.60;;
3257;SDS011;1641;51.306;12.384;2023-04-25T07:49:56;14.30;;;7.03;;
3257;SDS011;1641;51.306;12.384;2023-04-25T07:52:22;16.45;;;8.15;;
3257;SDS011;1641;51.306;12.384;2023-04-25T07:54:48;9.65;;;6.30;;
3257;SDS011;1641;51.306;12.384;2023-04-25T07:57:13;10.80;;;6.07;;
3257;SDS011;1641;51.306;12.384;2023-04-25T07:59:39;12.75;;;7.50;;
3257;SDS011;1641;51.306;12.384;2023-04-25T08:02:04;18.50;;;7.38;;
3257;SDS011;1641;51.306;12.384;2023-04-25T08:04:30;15.80;;;7.22;;
3257;SDS011;1641;51.306;12.384;2023-04-25T08:06:55;9.80;;;6.55;;
3257;SDS011;1641;51.306;12.384;2023-04-25T08:09:20;21.65;;;9.05;;
3257;SDS011;1641;51.306;12.384;2023-04-25T08:11:46;9.77;;;5.95;;
3257;SDS011;1641;51.306;12.384;2023-04-25T08:14:12;13.02;;;6.07;;
3257;SDS011;1641;51.306;12.384;2023-04-25T08:16:38;13.15;;;5.85;;
3257;SDS011;1641;51.306;12.384;2023-04-25T08:19:03;11.85;;;5.32;;
3257;SDS011;1641;51.306;12.384;2023-04-25T08:21:29;8.15;;;3.53;;
3257;SDS011;1641;51.306;12.384;2023-04-25T08:23:55;13.57;;;4.65;;
3257;SDS011;1641;51.306;12.384;2023-04-25T08:26:21;7.80;;;2.53;;
3257;SDS011;1641;51.306;12.384;2023-04-25T08:28:46;10.20;;;2.83;;
3257;SDS011;1641;51.306;12.384;2023-04-25T08:31:11;12.60;;;3.03;;
3257;SDS011;1641;51.306;12.384;2023-04-25T08:33:37;6.85;;;3.08;;
3257;SDS011;1641;51.306;12.384;2023-04-25T08:36:02;3.28;;;2.10;;
3257;SDS011;1641;51.306;12.384;2023-04-25T08:38:28;6.88;;;2.38;;
3257;SDS011;1641;51.306;12.384;2023-04-25T08:40:53;3.95;;;2.03;;
3257;SDS011;1641;51.306;12.384;2023-04-25T08:43:20;9.05;;;2.33;;
3257;SDS011;1641;51.306;12.384;2023-04-25T08:45:46;8.68;;;4.13;;
3257;SDS011;1641;51.306;12.384;2023-04-25T08:48:12;8.77;;;2.75;;
3257;SDS011;1641;51.306;12.384;2023-04-25T08:53:25;6.10;;;2.80;;
3257;SDS011;1641;51.306;12.384;2023-04-25T08:55:52;10.10;;;3.35;;
3257;SDS011;1641;51.306;12.384;2023-04-25T08:58:19;7.88;;;2.75;;
3257;SDS011;1641;51.306;12.384;2023-04-25T09:00:45;13.05;;;2.88;;
3257;SDS011;1641;51.306;12.384;2023-04-25T09:03:12;17.92;;;4.32;;
3257;SDS011;1641;51.306;12.384;2023-04-25T09:05:37;7.35;;;2.50;;
3257;SDS011;1641;51.306;12.384;2023-04-25T09:08:05;5.72;;;2.28;;
3257;SDS011;1641;51.306;12.384;2023-04-25T09:10:30;10.70;;;2.65;;
3257;SDS011;1641;51.306;12.384;2023-04-25T09:13:12;11.27;;;2.17;;
3257;SDS011;1641;51.306;12.384;2023-04-25T09:15:51;15.32;;;4.13;;
3257;SDS011;1641;51.306;12.384;2023-04-25T09:18:27;12.60;;;3.25;;
3257;SDS011;1641;51.306;12.384;2023-04-25T09:21:07;9.18;;;2.45;;
3257;SDS011;1641;51.306;12.384;2023-04-25T09:23:55;9.48;;;3.10;;
3257;SDS011;1641;51.306;12.384;2023-04-25T09:26:20;15.00;;;2.92;;
3257;SDS011;1641;51.306;12.384;2023-04-25T09:28:46;11.40;;;3.60;;
3257;SDS011;1641;51.306;12.384;2023-04-25T09:31:20;8.07;;;2.53;;
3257;SDS011;1641;51.306;12.384;2023-04-25T09:33:46;9.13;;;3.13;;
3257;SDS011;1641;51.306;12.384;2023-04-25T09:36:12;15.43;;;3.75;;
3257;SDS011;1641;51.306;12.384;2023-04-25T09:38:42;13.75;;;3.15;;
3257;SDS011;1641;51.306;12.384;2023-04-25T09:41:09;5.15;;;2.08;;
3257;SDS011;1641;51.306;12.384;2023-04-25T09:43:35;16.20;;;3.17;;
3257;SDS011;1641;51.306;12.384;2023-04-25T09:46:01;15.80;;;3.58;;
3257;SDS011;1641;51.306;12.384;2023-04-25T09:48:26;6.25;;;2.30;;
3257;SDS011;1641;51.306;12.384;2023-04-25T09:51:05;15.38;;;3.45;;
3257;SDS011;1641;51.306;12.384;2023-04-25T09:53:33;5.70;;;2.30;;
3257;SDS011;1641;51.306;12.384;2023-04-25T09:55:59;17.00;;;4.45;;
3257;SDS011;1641;51.306;12.384;2023-04-25T09:58:25;11.52;;;3.25;;
3257;SDS011;1641;51.306;12.384;2023-04-25T10:00:54;10.30;;;3.45;;
3257;SDS011;1641;51.306;12.384;2023-04-25T10:03:24;13.00;;;3.05;;
3257;SDS011;1641;51.306;12.384;2023-04-25T10:05:50;12.18;;;3.15;;
3257;SDS011;1641;51.306;12.384;2023-04-25T10:08:17;11.05;;;3.10;;
3257;SDS011;1641;51.306;12.384;2023-04-25T10:10:43;15.93;;;3.75;;
3257;SDS011;1641;51.306;12.384;2023-04-25T10:13:09;13.40;;;3.92;;
3257;SDS011;1641;51.306;12.384;2023-04-25T10:15:36;17.70;;;4.10;;
3257;SDS011;1641;51.306;12.384;2023-04-25T10:18:01;12.23;;;4.93;;
3257;SDS011;1641;51.306;12.384;2023-04-25T10:20:27;17.65;;;4.78;;
3257;SDS011;1641;51.306;12.384;2023-04-25T10:22:54;14.00;;;5.10;;
3257;SDS011;1641;51.306;12.384;2023-04-25T10:25:23;13.38;;;4.88;;
3257;SDS011;1641;51.306;12.384;2023-04-25T10:27:52;8.82;;;4.40;;
3257;SDS011;1641;51.306;12.384;2023-04-25T10:30:18;15.65;;;5.40;;
3257;SDS011;1641;51.306;12.384;2023-04-25T10:32:44;12.35;;;5.10;;
3257;SDS011;1641;51.306;12.384;2023-04-25T10:35:14;13.55;;;6.13;;
3257;SDS011;1641;51.306;12.384;2023-04-25T10:38:03;12.48;;;5.50;;
3257;SDS011;1641;51.306;12.384;2023-04-25T10:40:35;12.98;;;5.25;;
3257;SDS011;1641;51.306;12.384;2023-04-25T10:46:21;12.98;;;5.68;;
3257;SDS011;1641;51.306;12.384;2023-04-25T10:48:48;12.32;;;5.15;;
3257;SDS011;1641;51.306;12.384;2023-04-25T10:51:19;11.43;;;4.75;;
3257;SDS011;1641;51.306;12.384;2023-04-25T10:53:46;14.80;;;7.38;;
3257;SDS011;1641;51.306;12.384;2023-04-25T10:56:21;14.57;;;5.68;;
3257;SDS011;1641;51.306;12.384;2023-04-25T10:58:48;17.45;;;6.05;;
3257;SDS011;1641;51.306;12.384;2023-04-25T11:01:21;14.38;;;5.70;;
3257;SDS011;1641;51.306;12.384;2023-04-25T11:03:56;13.57;;;5.45;;
3257;SDS011;1641;51.306;12.384;2023-04-25T11:06:25;11.25;;;4.82;;
3257;SDS011;1641;51.306;12.384;2023-04-25T11:08:56;12.10;;;4.43;;
3257;SDS011;1641;51.306;12.384;2023-04-25T11:11:22;15.68;;;5.25;;
3257;SDS011;1641;51.306;12.384;2023-04-25T11:13:48;17.98;;;5.95;;
3257;SDS011;1641;51.306;12.384;2023-04-25T11:16:17;13.55;;;4.80;;
3257;SDS011;1641;51.306;12.384;2023-04-25T11:18:49;8.60;;;5.05;;
3257;SDS011;1641;51.306;12.384;2023-04-25T11:21:17;13.05;;;5.75;;
3257;SDS011;1641;51.306;12.384;2023-04-25T11:23:46;16.50;;;6.55;;
3257;SDS011;1641;51.306;12.384;2023-04-25T11:26:12;13.30;;;5.18;;
3257;SDS011;1641;51.306;12.384;2023-04-25T11:28:38;13.65;;;5.70;;
3257;SDS011;1641;51.306;12.384;2023-04-25T11:31:09;15.98;;;5.20;;
3257;SDS011;1641;51.306;12.384;2023-04-25T11:36:05;12.15;;;4.32;;
3257;SDS011;1641;51.306;12.384;2023-04-25T11:38:31;11.35;;;4.60;;
3257;SDS011;1641;51.306;12.384;2023-04-25T11:40:56;7.88;;;3.70;;
3257;SDS011;1641;51.306;12.384;2023-04-25T11:43:22;19.13;;;4.07;;
3257;SDS011;1641;51.306;12.384;2023-04-25T11:45:48;9.70;;;3.70;;
3257;SDS011;1641;51.306;12.384;2023-04-25T11:48:18;18.48;;;4.63;;
3257;SDS011;1641;51.306;12.384;2023-04-25T11:50:44;13.98;;;4.00;;
3257;SDS011;1641;51.306;12.384;2023-04-25T11:53:10;18.15;;;4.18;;
3257;SDS011;1641;51.306;12.384;2023-04-25T11:55:35;14.10;;;4.47;;
3257;SDS011;1641;51.306;12.384;2023-04-25T11:58:01;13.07;;;4.90;;
3257;SDS011;1641;51.306;12.384;2023-04-25T12:00:31;8.10;;;3.03;;
3257;SDS011;1641;51.306;12.384;2023-04-25T12:02:57;15.13;;;4.80;;
3257;SDS011;1641;51.306;12.384;2023-04-25T12:05:28;7.45;;;3.30;;
3257;SDS011;1641;51.306;12.384;2023-04-25T12:07:55;13.57;;;4.90;;
3257;SDS011;1641;51.306;12.384;2023-04-25T12:10:24;12.50;;;2.90;;
3257;SDS011;1641;51.306;12.384;2023-04-25T12:12:50;15.38;;;3.25;;
3257;SDS011;1641;51.306;12.384;2023-04-25T12:15:16;9.50;;;2.88;;
3257;SDS011;1641;51.306;12.384;2023-04-25T12:17:46;10.82;;;3.10;;
3257;SDS011;1641;51.306;12.384;2023-04-25T12:20:14;9.57;;;3.35;;
3257;SDS011;1641;51.306;12.384;2023-04-25T12:22:57;11.32;;;3.78;;
3257;SDS011;1641;51.306;12.384;2023-04-25T12:25:39;13.10;;;2.95;;
3257;SDS011;1641;51.306;12.384;2023-04-25T12:28:09;12.90;;;2.78;;
3257;SDS011;1641;51.306;12.384;2023-04-25T12:30:57;10.10;;;3.85;;
3257;SDS011;1641;51.306;12.384;2023-04-25T12:33:36;7.82;;;2.53;;
3257;SDS011;1641;51.306;12.384;2023-04-25T12:36:06;11.43;;;3.35;;
3257;SDS011;1641;51.306;12.384;2023-04-25T12:38:41;10.73;;;3.05;;
3257;SDS011;1641;51.306;12.384;2023-04-25T12:41:07;7.50;;;2.38;;
3257;SDS011;1641;51.306;12.384;2023-04-25T12:43:32;13.07;;;4.32;;
3257;SDS011;1641;51.306;12.384;2023-04-25T12:45:58;11.32;;;2.85;;
3257;SDS011;1641;51.306;12.384;2023-04-25T12:48:26;8.10;;;2.95;;
3257;SDS011;1641;51.306;12.384;2023-04-25T12:50:52;6.35;;;3.05;;
3257;SDS011;1641;51.306;12.384;2023-04-25T12:53:18;9.23;;;3.15;;
3257;SDS011;1641;51.306;12.384;2023-04-25T12:55:50;8.75;;;2.88;;
3257;SDS011;1641;51.306;12.384;2023-04-25T12:58:17;10.25;;;2.22;;
3257;SDS011;1641;51.306;12.384;2023-04-25T13:00:43;7.28;;;2.55;;
3257;SDS011;1641;51.306;12.384;2023-04-25T13:03:10;6.82;;;2.25;;
3257;SDS011;1641;51.306;12.384;2023-04-25T13:05:42;12.20;;;3.42;;
3257;SDS011;1641;51.306;12.384;2023-04-25T13:08:11;9.27;;;2.17;;
3257;SDS011;1641;51.306;12.384;2023-04-25T13:10:36;12.10;;;2.25;;
3257;SDS011;1641;51.306;12.384;2023-04-25T13:13:03;8.30;;;1.90;;
3257;SDS011;1641;51.306;12.384;2023-04-25T13:15:31;4.90;;;1.83;;
3257;SDS011;1641;51.306;12.384;2023-04-25T13:17:57;7.03;;;1.85;;
3257;SDS011;1641;51.306;12.384;2023-04-25T13:20:22;6.07;;;2.08;;
3257;SDS011;1641;51.306;12.384;2023-04-25T13:22:47;8.95;;;1.70;;
3257;SDS011;1641;51.306;12.384;2023-04-25T13:25:15;7.72;;;2.33;;
3257;SDS011;1641;51.306;12.384;2023-04-25T13:27:43;6.07;;;2.30;;
3257;SDS011;1641;51.306;12.384;2023-04-25T13:30:09;8.07;;;1.98;;
3257;SDS011;1641;51.306;12.384;2023-04-25T13:32:41;4.60;;;2.05;;
3257;SDS011;1641;51.306;12.384;2023-04-25T13:35:07;3.42;;;1.92;;
3257;SDS011;1641;51.306;12.384;2023-04-25T13:37:35;5.60;;;2.20;;
3257;SDS011;1641;51.306;12.384;2023-04-25T13:40:00;7.82;;;1.58;;
3257;SDS011;1641;51.306;12.384;2023-04-25T13:42:29;8.07;;;1.83;;
3257;SDS011;1641;51.306;12.384;2023-04-25T13:45:00;3.55;;;1.48;;
3257;SDS011;1641;51.306;12.384;2023-04-25T13:47:26;6.35;;;1.92;;
3257;SDS011;1641;51.306;12.384;2023-04-25T13:49:51;6.60;;;1.40;;
3257;SDS011;1641;51.306;12.384;2023-04-25T13:55:04;7.07;;;1.58;;
3257;SDS011;1641;51.306;12.384;2023-04-25T13:57:34;4.95;;;2.03;;
3257;SDS011;1641;51.306;12.384;2023-04-25T14:00:04;5.75;;;1.63;;
3257;SDS011;1641;51.306;12.384;2023-04-25T14:02:34;14.00;;;4.25;;
3257;SDS011;1641;51.306;12.384;2023-04-25T14:04:59;4.68;;;1.63;;
3257;SDS011;1641;51.306;12.384;2023-04-25T14:07:31;4.25;;;1.48;;
3257;SDS011;1641;51.306;12.384;2023-04-25T14:09:56;8.45;;;1.58;;
3257;SDS011;1641;51.306;12.384;2023-04-25T14:12:30;5.88;;;2.22;;
3257;SDS011;1641;51.306;12.384;2023-04-25T14:15:03;5.07;;;1.63;;
3257;SDS011;1641;51.306;12.384;2023-04-25T14:17:31;8.10;;;1.77;;
3257;SDS011;1641;51.306;12.384;2023-04-25T14:19:57;4.60;;;1.90;;
3257;SDS011;1641;51.306;12.384;2023-04-25T14:22:22;5.78;;;1.80;;
3257;SDS011;1641;51.306;12.384;2023-04-25T14:24:47;11.75;;;1.70;;
3257;SDS011;1641;51.306;12.384;2023-04-25T14:27:13;3.75;;;1.60;;
3257;SDS011;1641;51.306;12.384;2023-04-25T14:29:38;4.75;;;1.92;;
3257;SDS011;1641;51.306;12.384;2023-04-25T14:32:03;4.68;;;1.73;;
3257;SDS011;1641;51.306;12.384;2023-04-25T14:34:30;4.47;;;1.30;;
3257;SDS011;1641;51.306;12.384;2023-04-25T14:36:55;2.60;;;1.38;;
3257;SDS011;1641;51.306;12.384;2023-04-25T14:39:23;4.35;;;1.83;;
3257;SDS011;1641;51.306;12.384;2023-04-25T14:41:54;5.43;;;1.83;;
3257;SDS011;1641;51.306;12.384;2023-04-25T14:44:24;3.60;;;1.60;;
3257;SDS011;1641;51.306;12.384;2023-04-25T14:46:52;7.68;;;3.35;;
3257;SDS011;1641;51.306;12.384;2023-04-25T14:49:20;5.70;;;1.77;;
3257;SDS011;1641;51.306;12.384;2023-04-25T14:51:45;5.63;;;1.98;;
3257;SDS011;1641;51.306;12.384;2023-04-25T14:54:11;4.05;;;2.58;;
3257;SDS011;1641;51.306;12.384;2023-04-25T14:56:37;9.65;;;2.53;;
3257;SDS011;1641;51.306;12.384;2023-04-25T14:59:02;8.32;;;1.98;;
3257;SDS011;1641;51.306;12.384;2023-04-25T15:01:27;8.65;;;2.97;;